sensor_id;sensor_type;location;lat;lon;timestamp;pressure;altitude;pressure_sealevel;temperature;humidity
32759;BME280;19125;52.360;9.974;2024-02-15T00:00:03;-15010.44;;;-145.17;85.45
32759;BME280;19125;52.360;9.974;2024-02-15T00:02:32;-15010.44;;;-145.17;85.51
32759;BME280;19125;52.360;9.974;2024-02-15T00:04:57;-15010.44;;;-145.17;85.44
32759;BME280;19125;52.360;9.974;2024-02-15T00:07:22;-15010.44;;;-145.17;85.62
32759;BME280;19125;52.360;9.974;2024-02-15T00:09:48;-15010.44;;;-145.17;85.29
32759;BME280;19125;52.360;9.974;2024-02-15T00:12:14;-15010.44;;;-145.17;85.41
32759;BME280;19125;52.360;9.974;2024-02-15T00:14:39;-15010.44;;;-145.17;85.70
32759;BME280;19125;52.360;9.974;2024-02-15T00:17:05;-15010.44;;;-145.17;85.30
32759;BME280;19125;52.360;9.974;2024-02-15T00:19:30;-15010.44;;;-145.17;85.24
32759;BME280;19125;52.360;9.974;2024-02-15T00:21:56;-15010.44;;;-145.17;85.36
32759;BME280;19125;52.360;9.974;2024-02-15T00:24:22;-15010.44;;;-145.17;85.24
32759;BME280;19125;52.360;9.974;2024-02-15T00:26:49;-15010.44;;;-145.17;85.44
32759;BME280;19125;52.360;9.974;2024-02-15T00:29:14;-15010.44;;;-145.17;85.55
32759;BME280;19125;52.360;9.974;2024-02-15T00:31:40;-15010.44;;;-145.17;85.66
32759;BME280;19125;52.360;9.974;2024-02-15T00:34:05;-15010.44;;;-145.17;85.41
32759;BME280;19125;52.360;9.974;2024-02-15T00:36:31;-15010.44;;;-145.17;85.64
32759;BME280;19125;52.360;9.974;2024-02-15T00:38:57;-15010.44;;;-145.17;85.54
32759;BME280;19125;52.360;9.974;2024-02-15T00:41:23;-15010.44;;;-145.17;85.72
32759;BME280;19125;52.360;9.974;2024-02-15T00:43:48;-15010.44;;;-145.17;85.73
32759;BME280;19125;52.360;9.974;2024-02-15T00:46:16;-15010.44;;;-145.17;85.63
32759;BME280;19125;52.360;9.974;2024-02-15T00:48:41;-15010.44;;;-145.17;85.78
32759;BME280;19125;52.360;9.974;2024-02-15T00:51:07;-15010.44;;;-145.17;85.56
32759;BME280;19125;52.360;9.974;2024-02-15T00:53:33;-15010.44;;;-145.17;85.60
32759;BME280;19125;52.360;9.974;2024-02-15T00:55:58;-15010.44;;;-145.17;85.86
32759;BME280;19125;52.360;9.974;2024-02-15T00:58:24;-15010.44;;;-145.17;85.66
32759;BME280;19125;52.360;9.974;2024-02-15T01:00:50;-15010.44;;;-145.17;85.66
32759;BME280;19125;52.360;9.974;2024-02-15T01:03:16;-15010.44;;;-145.17;85.62
32759;BME280;19125;52.360;9.974;2024-02-15T01:05:42;-15010.44;;;-145.17;85.68
32759;BME280;19125;52.360;9.974;2024-02-15T01:08:07;-15010.44;;;-145.17;85.93
32759;BME280;19125;52.360;9.974;2024-02-15T01:10:34;-15010.44;;;-145.17;85.56
32759;BME280;19125;52.360;9.974;2024-02-15T01:13:00;-15010.44;;;-145.17;85.50
32759;BME280;19125;52.360;9.974;2024-02-15T01:15:25;-15010.44;;;-145.17;85.68
32759;BME280;19125;52.360;9.974;2024-02-15T01:17:50;-15010.44;;;-145.17;85.51
32759;BME280;19125;52.360;9.974;2024-02-15T01:20:16;-15010.44;;;-145.17;85.39
32759;BME280;19125;52.360;9.974;2024-02-15T01:22:41;-15010.44;;;-145.17;85.39
32759;BME280;19125;52.360;9.974;2024-02-15T01:25:07;-15010.44;;;-145.17;85.43
32759;BME280;19125;52.360;9.974;2024-02-15T01:27:33;-15010.44;;;-145.17;85.37
32759;BME280;19125;52.360;9.974;2024-02-15T01:29:59;-15010.44;;;-145.17;85.39
32759;BME280;19125;52.360;9.974;2024-02-15T01:32:24;-15010.44;;;-145.17;85.34
32759;BME280;19125;52.360;9.974;2024-02-15T01:34:50;-15010.44;;;-145.17;85.33
32759;BME280;19125;52.360;9.974;2024-02-15T01:37:19;-15010.44;;;-145.17;85.11
32759;BME280;19125;52.360;9.974;2024-02-15T01:39:45;-15010.44;;;-145.17;85.21
32759;BME280;19125;52.360;9.974;2024-02-15T01:42:10;-15010.44;;;-145.17;85.45
32759;BME280;19125;52.360;9.974;2024-02-15T01:44:36;-15010.44;;;-145.17;85.24
32759;BME280;19125;52.360;9.974;2024-02-15T01:47:02;-15010.44;;;-145.17;85.21
32759;BME280;19125;52.360;9.974;2024-02-15T01:49:28;-15010.44;;;-145.17;85.21
32759;BME280;19125;52.360;9.974;2024-02-15T01:51:55;-15010.44;;;-145.17;85.07
32759;BME280;19125;52.360;9.974;2024-02-15T01:54:22;-15010.44;;;-145.17;85.12
32759;BME280;19125;52.360;9.974;2024-02-15T01:56:48;-15010.44;;;-145.17;85.08
32759;BME280;19125;52.360;9.974;2024-02-15T01:59:17;-15010.44;;;-145.17;85.07
32759;BME280;19125;52.360;9.974;2024-02-15T02:01:43;-15010.44;;;-145.17;85.13
32759;BME280;19125;52.360;9.974;2024-02-15T02:04:09;-15010.44;;;-145.17;85.18
32759;BME280;19125;52.360;9.974;2024-02-15T02:06:37;-15010.44;;;-145.17;85.05
32759;BME280;19125;52.360;9.974;2024-02-15T02:09:03;-15010.44;;;-145.17;85.04
32759;BME280;19125;52.360;9.974;2024-02-15T02:11:28;-15010.44;;;-145.17;85.21
32759;BME280;19125;52.360;9.974;2024-02-15T02:13:55;-15010.44;;;-145.17;85.06
32759;BME280;19125;52.360;9.974;2024-02-15T02:16:24;-15010.44;;;-145.17;84.99
32759;BME280;19125;52.360;9.974;2024-02-15T02:18:51;-15010.44;;;-145.17;85.14
32759;BME280;19125;52.360;9.974;2024-02-15T02:21:16;-15010.44;;;-145.17;85.37
32759;BME280;19125;52.360;9.974;2024-02-15T02:23:42;-15010.44;;;-145.17;85.17
32759;BME280;19125;52.360;9.974;2024-02-15T02:26:08;-15010.44;;;-145.17;85.18
32759;BME280;19125;52.360;9.974;2024-02-15T02:28:35;-15010.44;;;-145.17;85.07
32759;BME280;19125;52.360;9.974;2024-02-15T02:31:01;-15010.44;;;-145.17;85.22
32759;BME280;19125;52.360;9.974;2024-02-15T02:33:26;-15010.44;;;-145.17;84.98
32759;BME280;19125;52.360;9.974;2024-02-15T02:35:54;-15010.44;;;-145.17;85.14
32759;BME280;19125;52.360;9.974;2024-02-15T02:38:19;-15010.44;;;-145.17;85.00
32759;BME280;19125;52.360;9.974;2024-02-15T02:40:45;-15010.44;;;-145.17;85.16
32759;BME280;19125;52.360;9.974;2024-02-15T02:43:10;-15010.44;;;-145.17;85.26
32759;BME280;19125;52.360;9.974;2024-02-15T02:45:36;-15010.44;;;-145.17;85.09
32759;BME280;19125;52.360;9.974;2024-02-15T02:48:01;-15010.44;;;-145.17;84.95
32759;BME280;19125;52.360;9.974;2024-02-15T02:50:26;-15010.44;;;-145.17;84.87
32759;BME280;19125;52.360;9.974;2024-02-15T02:52:52;-15010.44;;;-145.17;85.06
32759;BME280;19125;52.360;9.974;2024-02-15T02:55:18;-15010.44;;;-145.17;85.22
32759;BME280;19125;52.360;9.974;2024-02-15T02:57:43;-15010.44;;;-145.17;85.05
32759;BME280;19125;52.360;9.974;2024-02-15T03:00:11;-15010.44;;;-145.17;84.94
32759;BME280;19125;52.360;9.974;2024-02-15T03:02:45;-15010.44;;;-145.17;85.01
32759;BME280;19125;52.360;9.974;2024-02-15T03:05:12;-15010.44;;;-145.17;84.99
32759;BME280;19125;52.360;9.974;2024-02-15T03:07:38;-15010.44;;;-145.17;85.05
32759;BME280;19125;52.360;9.974;2024-02-15T03:10:06;-15010.44;;;-145.17;84.95
32759;BME280;19125;52.360;9.974;2024-02-15T03:12:36;-15010.44;;;-145.17;84.89
32759;BME280;19125;52.360;9.974;2024-02-15T03:15:03;-15010.44;;;-145.17;85.03
32759;BME280;19125;52.360;9.974;2024-02-15T03:17:28;-15010.44;;;-145.17;84.87
32759;BME280;19125;52.360;9.974;2024-02-15T03:19:57;-15010.44;;;-145.17;84.80
32759;BME280;19125;52.360;9.974;2024-02-15T03:22:22;-15010.44;;;-145.17;84.85
32759;BME280;19125;52.360;9.974;2024-02-15T03:24:51;-15010.44;;;-145.17;84.95
32759;BME280;19125;52.360;9.974;2024-02-15T03:27:17;-15010.44;;;-145.17;84.97
32759;BME280;19125;52.360;9.974;2024-02-15T03:29:42;-15010.44;;;-145.17;84.99
32759;BME280;19125;52.360;9.974;2024-02-15T03:32:08;-15010.44;;;-145.17;84.77
32759;BME280;19125;52.360;9.974;2024-02-15T03:34:35;-15010.44;;;-145.17;84.91
32759;BME280;19125;52.360;9.974;2024-02-15T03:37:00;-15010.44;;;-145.17;85.01
32759;BME280;19125;52.360;9.974;2024-02-15T03:39:28;-15010.44;;;-145.17;85.08
32759;BME280;19125;52.360;9.974;2024-02-15T03:41:55;-15010.44;;;-145.17;85.00
32759;BME280;19125;52.360;9.974;2024-02-15T03:44:21;-15010.44;;;-145.17;85.10
32759;BME280;19125;52.360;9.974;2024-02-15T03:46:46;-15010.44;;;-145.17;84.93
32759;BME280;19125;52.360;9.974;2024-02-15T03:49:17;-15010.44;;;-145.17;84.99
32759;BME280;19125;52.360;9.974;2024-02-15T03:51:43;-15010.44;;;-145.17;85.19
32759;BME280;19125;52.360;9.974;2024-02-15T03:54:10;-15010.44;;;-145.17;85.13
32759;BME280;19125;52.360;9.974;2024-02-15T03:56:35;-15010.44;;;-145.17;85.17
32759;BME280;19125;52.360;9.974;2024-02-15T03:59:02;-15010.44;;;-145.17;85.14
32759;BME280;19125;52.360;9.974;2024-02-15T04:01:30;-15010.44;;;-145.17;85.45
32759;BME280;19125;52.360;9.974;2024-02-15T04:03:59;-15010.44;;;-145.17;85.20
32759;BME280;19125;52.360;9.974;2024-02-15T04:06:25;-15010.44;;;-145.17;85.11
32759;BME280;19125;52.360;9.974;2024-02-15T04:08:52;-15010.44;;;-145.17;85.37
32759;BME280;19125;52.360;9.974;2024-02-15T04:11:18;-15010.44;;;-145.17;85.10
32759;BME280;19125;52.360;9.974;2024-02-15T04:13:45;-15010.44;;;-145.17;85.03
32759;BME280;19125;52.360;9.974;2024-02-15T04:16:10;-15010.44;;;-145.17;85.15
32759;BME280;19125;52.360;9.974;2024-02-15T04:18:35;-15010.44;;;-145.17;85.10
32759;BME280;19125;52.360;9.974;2024-02-15T04:21:01;-15010.44;;;-145.17;85.12
32759;BME280;19125;52.360;9.974;2024-02-15T04:23:27;-15010.44;;;-145.17;85.43
32759;BME280;19125;52.360;9.974;2024-02-15T04:25:52;-15010.44;;;-145.17;85.10
32759;BME280;19125;52.360;9.974;2024-02-15T04:28:19;-15010.44;;;-145.17;85.26
32759;BME280;19125;52.360;9.974;2024-02-15T04:30:45;-15010.44;;;-145.17;85.33
32759;BME280;19125;52.360;9.974;2024-02-15T04:33:12;-15010.44;;;-145.17;85.35
32759;BME280;19125;52.360;9.974;2024-02-15T04:35:40;-15010.44;;;-145.17;85.11
32759;BME280;19125;52.360;9.974;2024-02-15T04:38:05;-15010.44;;;-145.17;85.22
32759;BME280;19125;52.360;9.974;2024-02-15T04:40:33;-15010.44;;;-145.17;85.15
32759;BME280;19125;52.360;9.974;2024-02-15T04:42:58;-15010.44;;;-145.17;85.18
32759;BME280;19125;52.360;9.974;2024-02-15T04:45:24;-15010.44;;;-145.17;85.40
32759;BME280;19125;52.360;9.974;2024-02-15T04:47:49;-15010.44;;;-145.17;85.08
32759;BME280;19125;52.360;9.974;2024-02-15T04:50:17;-15010.44;;;-145.17;85.24
32759;BME280;19125;52.360;9.974;2024-02-15T04:52:43;-15010.44;;;-145.17;85.01
32759;BME280;19125;52.360;9.974;2024-02-15T04:55:10;-15010.44;;;-145.17;84.97
32759;BME280;19125;52.360;9.974;2024-02-15T04:57:36;-15010.44;;;-145.17;84.99
32759;BME280;19125;52.360;9.974;2024-02-15T05:00:02;-15010.44;;;-145.17;85.12
32759;BME280;19125;52.360;9.974;2024-02-15T05:02:34;-15010.44;;;-145.17;85.10
32759;BME280;19125;52.360;9.974;2024-02-15T05:05:08;-15010.44;;;-145.17;84.99
32759;BME280;19125;52.360;9.974;2024-02-15T05:07:34;-15010.44;;;-145.17;84.98
32759;BME280;19125;52.360;9.974;2024-02-15T05:10:03;-15010.44;;;-145.17;85.11
32759;BME280;19125;52.360;9.974;2024-02-15T05:12:31;-15010.44;;;-145.17;85.01
32759;BME280;19125;52.360;9.974;2024-02-15T05:14:58;-15010.44;;;-145.17;85.16
32759;BME280;19125;52.360;9.974;2024-02-15T05:17:23;-15010.44;;;-145.17;85.09
32759;BME280;19125;52.360;9.974;2024-02-15T05:19:49;-15010.44;;;-145.17;84.86
32759;BME280;19125;52.360;9.974;2024-02-15T05:22:15;-15010.44;;;-145.17;85.28
32759;BME280;19125;52.360;9.974;2024-02-15T05:24:40;-15010.44;;;-145.17;84.80
32759;BME280;19125;52.360;9.974;2024-02-15T05:27:05;-15010.44;;;-145.17;85.20
32759;BME280;19125;52.360;9.974;2024-02-15T05:29:31;-15010.44;;;-145.17;84.78
32759;BME280;19125;52.360;9.974;2024-02-15T05:32:00;-15010.44;;;-145.17;85.14
32759;BME280;19125;52.360;9.974;2024-02-15T05:34:26;-15010.44;;;-145.17;85.23
32759;BME280;19125;52.360;9.974;2024-02-15T05:36:51;-15010.44;;;-145.17;84.98
32759;BME280;19125;52.360;9.974;2024-02-15T05:39:17;-15010.44;;;-145.17;84.99
32759;BME280;19125;52.360;9.974;2024-02-15T05:41:45;-15010.44;;;-145.17;85.10
32759;BME280;19125;52.360;9.974;2024-02-15T05:44:11;-15010.44;;;-145.17;85.20
32759;BME280;19125;52.360;9.974;2024-02-15T05:46:36;-15010.44;;;-145.17;85.20
32759;BME280;19125;52.360;9.974;2024-02-15T05:49:05;-15010.44;;;-145.17;85.49
32759;BME280;19125;52.360;9.974;2024-02-15T05:51:30;-15010.44;;;-145.17;85.18
32759;BME280;19125;52.360;9.974;2024-02-15T05:53:57;-15010.44;;;-145.17;85.15
32759;BME280;19125;52.360;9.974;2024-02-15T05:56:26;-15010.44;;;-145.17;85.01
32759;BME280;19125;52.360;9.974;2024-02-15T05:58:52;-15010.44;;;-145.17;85.17
32759;BME280;19125;52.360;9.974;2024-02-15T06:01:17;-15010.44;;;-145.17;85.08
32759;BME280;19125;52.360;9.974;2024-02-15T06:03:43;-15010.44;;;-145.17;85.11
32759;BME280;19125;52.360;9.974;2024-02-15T06:06:10;-15010.44;;;-145.17;84.92
32759;BME280;19125;52.360;9.974;2024-02-15T06:08:37;-15010.44;;;-145.17;84.96
32759;BME280;19125;52.360;9.974;2024-02-15T06:11:03;-15010.44;;;-145.17;85.02
32759;BME280;19125;52.360;9.974;2024-02-15T06:13:30;-15010.44;;;-145.17;84.89
32759;BME280;19125;52.360;9.974;2024-02-15T06:15:56;-15010.44;;;-145.17;84.95
32759;BME280;19125;52.360;9.974;2024-02-15T06:18:28;-15010.44;;;-145.17;84.94
32759;BME280;19125;52.360;9.974;2024-02-15T06:20:58;-15010.44;;;-145.17;84.90
32759;BME280;19125;52.360;9.974;2024-02-15T06:23:24;-15010.44;;;-145.17;84.93
32759;BME280;19125;52.360;9.974;2024-02-15T06:25:53;-15010.44;;;-145.17;84.83
32759;BME280;19125;52.360;9.974;2024-02-15T06:28:22;-15010.44;;;-145.17;84.93
32759;BME280;19125;52.360;9.974;2024-02-15T06:31:10;-15010.44;;;-145.17;84.88
32759;BME280;19125;52.360;9.974;2024-02-15T06:33:54;-15010.44;;;-145.17;84.93
32759;BME280;19125;52.360;9.974;2024-02-15T06:36:49;-15010.44;;;-145.17;84.83
32759;BME280;19125;52.360;9.974;2024-02-15T06:39:34;-15010.44;;;-145.17;84.81
32759;BME280;19125;52.360;9.974;2024-02-15T06:42:19;-15010.44;;;-145.17;84.80
32759;BME280;19125;52.360;9.974;2024-02-15T06:44:46;-15010.44;;;-145.17;84.80
32759;BME280;19125;52.360;9.974;2024-02-15T06:47:12;-15010.44;;;-145.17;85.01
32759;BME280;19125;52.360;9.974;2024-02-15T06:49:42;-15010.44;;;-145.17;84.88
32759;BME280;19125;52.360;9.974;2024-02-15T06:52:10;-15010.44;;;-145.17;84.49
32759;BME280;19125;52.360;9.974;2024-02-15T06:54:40;-15010.44;;;-145.17;84.57
32759;BME280;19125;52.360;9.974;2024-02-15T06:57:05;-15010.44;;;-145.17;84.82
32759;BME280;19125;52.360;9.974;2024-02-15T06:59:32;-15010.44;;;-145.17;84.93
32759;BME280;19125;52.360;9.974;2024-02-15T07:01:58;-15010.44;;;-145.17;84.62
32759;BME280;19125;52.360;9.974;2024-02-15T07:04:24;-15010.44;;;-145.17;84.76
32759;BME280;19125;52.360;9.974;2024-02-15T07:06:51;-15010.44;;;-145.17;84.57
32759;BME280;19125;52.360;9.974;2024-02-15T07:09:17;-15010.44;;;-145.17;84.62
32759;BME280;19125;52.360;9.974;2024-02-15T07:11:45;-15010.44;;;-145.17;84.72
32759;BME280;19125;52.360;9.974;2024-02-15T07:14:12;-15010.44;;;-145.17;84.54
32759;BME280;19125;52.360;9.974;2024-02-15T07:16:38;-15010.44;;;-145.17;84.61
32759;BME280;19125;52.360;9.974;2024-02-15T07:19:03;-15010.44;;;-145.17;84.57
32759;BME280;19125;52.360;9.974;2024-02-15T07:21:28;-15010.44;;;-145.17;84.31
32759;BME280;19125;52.360;9.974;2024-02-15T07:23:55;-15010.44;;;-145.17;84.35
32759;BME280;19125;52.360;9.974;2024-02-15T07:26:21;-15010.44;;;-145.17;84.26
32759;BME280;19125;52.360;9.974;2024-02-15T07:28:53;-15010.44;;;-145.17;83.88
32759;BME280;19125;52.360;9.974;2024-02-15T07:31:19;-15010.44;;;-145.17;84.09
32759;BME280;19125;52.360;9.974;2024-02-15T07:33:47;-15010.44;;;-145.17;84.05
32759;BME280;19125;52.360;9.974;2024-02-15T07:36:12;-15010.44;;;-145.17;84.08
32759;BME280;19125;52.360;9.974;2024-02-15T07:38:38;-15010.44;;;-145.17;84.04
32759;BME280;19125;52.360;9.974;2024-02-15T07:41:03;-15010.44;;;-145.17;83.81
32759;BME280;19125;52.360;9.974;2024-02-15T07:43:28;-15010.44;;;-145.17;83.93
32759;BME280;19125;52.360;9.974;2024-02-15T07:45:54;-15010.44;;;-145.17;83.89
32759;BME280;19125;52.360;9.974;2024-02-15T07:48:19;-15010.44;;;-145.17;83.73
32759;BME280;19125;52.360;9.974;2024-02-15T07:50:44;-15010.44;;;-145.17;83.60
32759;BME280;19125;52.360;9.974;2024-02-15T07:53:10;-15010.44;;;-145.17;83.58
32759;BME280;19125;52.360;9.974;2024-02-15T07:55:37;-15010.44;;;-145.17;83.72
32759;BME280;19125;52.360;9.974;2024-02-15T07:58:05;-15010.44;;;-145.17;83.69
32759;BME280;19125;52.360;9.974;2024-02-15T08:00:31;-15010.44;;;-145.17;83.40
32759;BME280;19125;52.360;9.974;2024-02-15T08:02:57;-15010.44;;;-145.17;83.35
32759;BME280;19125;52.360;9.974;2024-02-15T08:05:23;-15010.44;;;-145.17;83.37
32759;BME280;19125;52.360;9.974;2024-02-15T08:07:49;-15010.44;;;-145.17;83.14
32759;BME280;19125;52.360;9.974;2024-02-15T08:10:14;-15010.44;;;-145.17;83.08
32759;BME280;19125;52.360;9.974;2024-02-15T08:12:40;-15010.44;;;-145.17;83.15
32759;BME280;19125;52.360;9.974;2024-02-15T08:15:07;-15010.44;;;-145.17;83.09
32759;BME280;19125;52.360;9.974;2024-02-15T08:17:41;-15010.44;;;-145.17;82.59
32759;BME280;19125;52.360;9.974;2024-02-15T08:20:08;-15010.44;;;-145.17;82.72
32759;BME280;19125;52.360;9.974;2024-02-15T08:22:35;-15010.44;;;-145.17;82.49
32759;BME280;19125;52.360;9.974;2024-02-15T08:25:02;-15010.44;;;-145.17;82.20
32759;BME280;19125;52.360;9.974;2024-02-15T08:27:30;-15010.44;;;-145.17;81.91
32759;BME280;19125;52.360;9.974;2024-02-15T08:29:57;-15010.44;;;-145.17;81.67
32759;BME280;19125;52.360;9.974;2024-02-15T08:32:23;-15010.44;;;-145.17;81.51
32759;BME280;19125;52.360;9.974;2024-02-15T08:34:49;-15010.44;;;-145.17;81.25
32759;BME280;19125;52.360;9.974;2024-02-15T08:37:15;-15010.44;;;-145.17;81.00
32759;BME280;19125;52.360;9.974;2024-02-15T08:39:40;-15010.44;;;-145.17;80.92
32759;BME280;19125;52.360;9.974;2024-02-15T08:42:06;-15010.44;;;-145.17;80.69
32759;BME280;19125;52.360;9.974;2024-02-15T08:44:31;-15010.44;;;-145.17;80.22
32759;BME280;19125;52.360;9.974;2024-02-15T08:46:56;-15010.44;;;-145.17;80.30
32759;BME280;19125;52.360;9.974;2024-02-15T08:49:22;-15010.44;;;-145.17;79.93
32759;BME280;19125;52.360;9.974;2024-02-15T08:51:47;-15010.44;;;-145.17;79.82
32759;BME280;19125;52.360;9.974;2024-02-15T08:54:13;-15010.44;;;-145.17;79.42
32759;BME280;19125;52.360;9.974;2024-02-15T08:56:38;-15010.44;;;-145.17;79.24
32759;BME280;19125;52.360;9.974;2024-02-15T08:59:03;-15010.44;;;-145.17;79.18
32759;BME280;19125;52.360;9.974;2024-02-15T09:01:29;-15010.44;;;-145.17;78.41
32759;BME280;19125;52.360;9.974;2024-02-15T09:03:55;-15010.44;;;-145.17;78.20
32759;BME280;19125;52.360;9.974;2024-02-15T09:06:20;-15010.44;;;-145.17;78.24
32759;BME280;19125;52.360;9.974;2024-02-15T09:08:47;-15010.44;;;-145.17;77.81
32759;BME280;19125;52.360;9.974;2024-02-15T09:11:13;-15010.44;;;-145.17;77.33
32759;BME280;19125;52.360;9.974;2024-02-15T09:13:38;-15010.44;;;-145.17;77.27
32759;BME280;19125;52.360;9.974;2024-02-15T09:16:04;-15010.44;;;-145.17;76.92
32759;BME280;19125;52.360;9.974;2024-02-15T09:18:30;-14761.44;;;-145.17;76.11
32759;BME280;19125;52.360;9.974;2024-02-15T09:20:55;-13771.13;;;-145.17;76.10
32759;BME280;19125;52.360;9.974;2024-02-15T09:23:21;-12780.53;;;-145.17;75.78
32759;BME280;19125;52.360;9.974;2024-02-15T09:25:49;-11541.97;;;-145.17;75.55
32759;BME280;19125;52.360;9.974;2024-02-15T09:28:17;-10055.13;;;-145.17;74.89
32759;BME280;19125;52.360;9.974;2024-02-15T09:30:47;-8319.75;;;-145.17;74.42
32759;BME280;19125;52.360;9.974;2024-02-15T09:33:13;-6583.59;;;-145.17;74.13
32759;BME280;19125;52.360;9.974;2024-02-15T09:35:38;-4350.25;;;-145.17;73.60
32759;BME280;19125;52.360;9.974;2024-02-15T09:38:03;-2363.94;;;-145.17;73.33
32759;BME280;19125;52.360;9.974;2024-02-15T09:40:31;-128.16;;;-145.17;73.17
32759;BME280;19125;52.360;9.974;2024-02-15T09:42:57;2606.25;;;-145.17;72.52
32759;BME280;19125;52.360;9.974;2024-02-15T09:45:22;5591.47;;;-145.17;72.34
32759;BME280;19125;52.360;9.974;2024-02-15T09:47:50;9326.22;;;-145.17;71.70
32759;BME280;19125;52.360;9.974;2024-02-15T09:50:17;14810.38;;;-145.17;70.78
32759;BME280;19125;52.360;9.974;2024-02-15T09:52:50;20552.13;;;-145.17;69.83
32759;BME280;19125;52.360;9.974;2024-02-15T09:55:16;26052.16;;;-145.17;69.59
32759;BME280;19125;52.360;9.974;2024-02-15T09:57:43;32311.59;;;-145.17;68.95
32759;BME280;19125;52.360;9.974;2024-02-15T10:00:10;38330.09;;;-145.17;68.42
32759;BME280;19125;52.360;9.974;2024-02-15T10:02:47;45614.78;;;-145.17;67.68
32759;BME280;19125;52.360;9.974;2024-02-15T10:05:13;52157.31;;;-145.17;67.05
32759;BME280;19125;52.360;9.974;2024-02-15T10:07:39;58962.94;;;-145.17;66.83
32759;BME280;19125;52.360;9.974;2024-02-15T10:10:24;66730.03;;;-145.17;66.31
32759;BME280;19125;52.360;9.974;2024-02-15T10:12:51;72025.91;;;-145.17;66.17
32759;BME280;19125;52.360;9.974;2024-02-15T10:15:30;75382.94;;;-145.17;66.08
32759;BME280;19125;52.360;9.974;2024-02-15T10:17:56;78364.50;;;-145.17;65.62
32759;BME280;19125;52.360;9.974;2024-02-15T10:20:22;80083.97;;;-145.17;65.54
32759;BME280;19125;52.360;9.974;2024-02-15T10:23:12;81627.75;;;-145.17;65.36
32759;BME280;19125;52.360;9.974;2024-02-15T10:25:37;82906.44;;;-145.17;65.04
32759;BME280;19125;52.360;9.974;2024-02-15T10:28:07;83552.88;;;-145.17;64.98
32759;BME280;19125;52.360;9.974;2024-02-15T10:30:43;83973.28;;;-145.17;65.16
32759;BME280;19125;52.360;9.974;2024-02-15T10:33:40;84576.25;;;-145.17;65.16
32759;BME280;19125;52.360;9.974;2024-02-15T10:36:09;84873.81;;;-145.17;64.67
32759;BME280;19125;52.360;9.974;2024-02-15T10:38:35;85157.50;;;-145.17;64.89
32759;BME280;19125;52.360;9.974;2024-02-15T10:41:05;85264.63;;;-145.17;64.90
32759;BME280;19125;52.360;9.974;2024-02-15T10:43:32;85530.47;;;-145.17;64.70
32759;BME280;19125;52.360;9.974;2024-02-15T10:45:59;85707.06;;;-145.17;64.50
32759;BME280;19125;52.360;9.974;2024-02-15T10:48:26;85762.63;;;-145.17;64.89
32759;BME280;19125;52.360;9.974;2024-02-15T10:50:53;85718.97;;;-145.17;64.95
32759;BME280;19125;52.360;9.974;2024-02-15T10:53:28;85621.75;;;-145.17;64.86
32759;BME280;19125;52.360;9.974;2024-02-15T10:56:17;85443.19;;;-145.17;65.30
32759;BME280;19125;52.360;9.974;2024-02-15T10:58:50;85248.75;;;-145.17;65.12
32759;BME280;19125;52.360;9.974;2024-02-15T11:01:17;84925.38;;;-145.17;65.32
32759;BME280;19125;52.360;9.974;2024-02-15T11:03:52;84058.56;;;-145.17;65.76
32759;BME280;19125;52.360;9.974;2024-02-15T11:06:24;83158.25;;;-145.17;65.97
32759;BME280;19125;52.360;9.974;2024-02-15T11:08:51;82315.59;;;-145.17;66.10
32759;BME280;19125;52.360;9.974;2024-02-15T11:11:17;81514.78;;;-145.17;66.12
32759;BME280;19125;52.360;9.974;2024-02-15T11:13:43;80975.69;;;-145.17;66.45
32759;BME280;19125;52.360;9.974;2024-02-15T11:16:08;79699.59;;;-145.17;66.65
32759;BME280;19125;52.360;9.974;2024-02-15T11:18:49;77330.81;;;-145.17;66.76
32759;BME280;19125;52.360;9.974;2024-02-15T11:24:24;70305.97;;;-145.17;67.40
32759;BME280;19125;52.360;9.974;2024-02-15T11:26:50;66674.72;;;-145.17;67.76
32759;BME280;19125;52.360;9.974;2024-02-15T11:29:53;63001.44;;;-145.17;68.01
32759;BME280;19125;52.360;9.974;2024-02-15T11:32:43;58458.44;;;-145.17;68.30
32759;BME280;19125;52.360;9.974;2024-02-15T11:35:09;54928.56;;;-145.17;68.75
32759;BME280;19125;52.360;9.974;2024-02-15T11:40:23;49136.31;;;-145.17;68.89
32759;BME280;19125;52.360;9.974;2024-02-15T11:42:51;47375.16;;;-145.17;69.45
32759;BME280;19125;52.360;9.974;2024-02-15T11:45:18;46369.13;;;-145.17;69.26
32759;BME280;19125;52.360;9.974;2024-02-15T11:47:47;45614.78;;;-145.17;69.07
32759;BME280;19125;52.360;9.974;2024-02-15T11:50:14;45614.78;;;-145.17;69.16
32759;BME280;19125;52.360;9.974;2024-02-15T11:52:46;45111.94;;;-145.17;69.34
32759;BME280;19125;52.360;9.974;2024-02-15T11:55:17;44106.50;;;-145.17;69.51
32759;BME280;19125;52.360;9.974;2024-02-15T12:00:28;43101.28;;;-145.17;69.23
32759;BME280;19125;52.360;9.974;2024-02-15T12:03:14;44860.56;;;-145.17;69.24
32759;BME280;19125;52.360;9.974;2024-02-15T12:05:58;46872.09;;;-145.17;68.94
32759;BME280;19125;52.360;9.974;2024-02-15T12:08:49;50143.06;;;-145.17;68.37
32759;BME280;19125;52.360;9.974;2024-02-15T12:11:34;53164.81;;;-145.17;68.24
32759;BME280;19125;52.360;9.974;2024-02-15T12:14:18;55684.69;;;-145.17;68.36
32759;BME280;19125;52.360;9.974;2024-02-15T12:17:12;56440.97;;;-145.17;68.27
32759;BME280;19125;52.360;9.974;2024-02-15T12:19:59;57197.41;;;-145.17;68.01
32759;BME280;19125;52.360;9.974;2024-02-15T12:22:43;58962.94;;;-145.17;67.93
32759;BME280;19125;52.360;9.974;2024-02-15T12:25:14;60981.69;;;-145.17;67.63
32759;BME280;19125;52.360;9.974;2024-02-15T12:27:40;61991.44;;;-145.17;67.87
32759;BME280;19125;52.360;9.974;2024-02-15T12:30:06;62748.91;;;-145.17;67.85
32759;BME280;19125;52.360;9.974;2024-02-15T12:32:34;63253.97;;;-145.17;67.69
32759;BME280;19125;52.360;9.974;2024-02-15T12:35:14;64011.69;;;-145.17;67.61
32759;BME280;19125;52.360;9.974;2024-02-15T12:37:47;65022.22;;;-145.17;67.51
32759;BME280;19125;52.360;9.974;2024-02-15T12:40:15;66376.56;;;-145.17;67.61
32759;BME280;19125;52.360;9.974;2024-02-15T12:42:43;66834.69;;;-145.17;67.34
32759;BME280;19125;52.360;9.974;2024-02-15T12:45:18;67644.44;;;-145.17;67.64